createdAt,value
2019-05-29T00:00:39.762Z,100160.44
2019-05-29T00:03:10.337Z,100156.58
2019-05-29T00:05:39.854Z,100161.66
2019-05-29T00:08:10.406Z,100163.55
2019-05-29T00:10:39.826Z,100168.94
2019-05-29T00:13:10.260Z,100174.22
2019-05-29T00:15:39.555Z,100172.27
2019-05-29T00:18:10.284Z,100179.75
2019-05-29T00:20:39.739Z,100188.15
2019-05-29T00:23:10.468Z,100187.05
2019-05-29T00:25:40.361Z,100195.33
2019-05-29T00:28:10.591Z,100201.54
2019-05-29T00:30:40.529Z,100202.99
2019-05-29T00:33:10.148Z,100210.30
2019-05-29T00:35:39.590Z,100217.55
2019-05-29T00:38:08.932Z,100221.32
2019-05-29T00:40:38.725Z,100219.14
2019-05-29T00:43:09.155Z,100222.11
2019-05-29T00:45:38.453Z,100225.30
2019-05-29T00:48:07.818Z,100214.59
2019-05-29T00:50:37.199Z,100214.59
2019-05-29T00:53:06.596Z,100223.33
2019-05-29T00:55:35.925Z,100223.50
2019-05-29T00:58:05.326Z,100229.83
2019-05-29T01:00:34.808Z,100228.52
2019-05-29T01:03:04.277Z,100234.83
2019-05-29T01:05:33.614Z,100233.70
2019-05-29T01:08:02.980Z,100229.80
2019-05-29T01:10:32.688Z,100234.44
2019-05-29T01:13:02.010Z,100238.59
2019-05-29T01:15:31.759Z,100243.45
2019-05-29T01:18:01.161Z,100242.14
2019-05-29T01:20:45.775Z,100243.39
2019-05-29T01:23:16.225Z,100240.37
2019-05-29T01:25:45.535Z,100238.70
2019-05-29T01:28:15.182Z,100245.42
2019-05-29T01:30:44.509Z,100249.17
2019-05-29T01:33:19.420Z,100246.63
2019-05-29T01:35:44.934Z,100251.86
2019-05-29T01:38:15.185Z,100253.94
2019-05-29T01:40:44.778Z,100255.52
2019-05-29T01:43:15.317Z,100259.67
2019-05-29T01:45:44.768Z,100261.61
2019-05-29T01:48:15.393Z,100264.52
2019-05-29T01:50:45.012Z,100265.81
2019-05-29T01:53:15.505Z,100267.41
2019-05-29T01:55:44.883Z,100268.03
2019-05-29T01:58:15.548Z,100266.43
2019-05-29T02:00:44.930Z,100270.68
2019-05-29T02:03:15.704Z,100271.56
2019-05-29T02:05:45.094Z,100272.28
2019-05-29T02:08:15.884Z,100282.47
2019-05-29T02:10:45.237Z,100280.70
2019-05-29T02:13:15.207Z,100287.52
2019-05-29T02:15:44.538Z,100296.40
2019-05-29T02:18:13.932Z,100298.27
2019-05-29T02:20:43.224Z,100298.73
2019-05-29T02:23:12.662Z,100300.80
2019-05-29T02:25:42.828Z,100297.98
2019-05-29T02:28:18.521Z,100301.70
2019-05-29T02:30:48.047Z,100304.41
2019-05-29T02:33:17.620Z,100299.00
2019-05-29T02:35:46.947Z,100299.95
2019-05-29T02:38:16.260Z,100304.22
2019-05-29T02:40:45.571Z,100302.41
2019-05-29T02:43:14.879Z,100311.28
2019-05-29T02:45:54.170Z,100308.64
2019-05-29T02:48:15.163Z,100308.42
2019-05-29T02:50:44.885Z,100307.93
2019-05-29T02:53:14.191Z,100313.00
2019-05-29T02:55:43.740Z,100308.39
2019-05-29T02:58:13.419Z,100313.74
2019-05-29T03:00:56.897Z,100317.46
2019-05-29T03:03:29.232Z,100313.53
2019-05-29T03:05:57.541Z,100315.34
2019-05-29T03:08:29.120Z,100309.17
2019-05-29T03:10:57.845Z,100309.81
2019-05-29T03:13:28.318Z,100309.47
2019-05-29T03:16:10.398Z,100306.52
2019-05-29T03:18:30.230Z,100300.09
2019-05-29T03:21:00.113Z,100298.46
2019-05-29T03:23:31.068Z,100294.87
2019-05-29T03:26:00.911Z,100291.52
2019-05-29T03:28:32.119Z,100301.83
2019-05-29T03:31:01.227Z,100304.20
2019-05-29T03:33:36.113Z,100301.75
2019-05-29T03:36:01.585Z,100304.47
2019-05-29T03:38:32.492Z,100315.92
2019-05-29T03:41:02.038Z,100320.16
2019-05-29T03:43:32.927Z,100331.25
2019-05-29T03:46:02.383Z,100334.91
2019-05-29T03:48:32.419Z,100329.81
2019-05-29T03:51:02.752Z,100328.80
2019-05-29T03:53:33.907Z,100343.59
2019-05-29T03:56:03.534Z,100342.06
2019-05-29T03:58:35.300Z,100351.16
2019-05-29T04:01:05.385Z,100362.69
2019-05-29T04:03:36.078Z,100361.20
2019-05-29T04:06:06.667Z,100363.45
2019-05-29T04:08:38.243Z,100369.44
2019-05-29T04:11:07.527Z,100371.91
2019-05-29T04:13:38.782Z,100377.42
2019-05-29T04:16:10.072Z,100375.48
2019-05-29T04:18:40.779Z,100379.08
2019-05-29T04:21:12.133Z,100336.30
2019-05-29T04:23:42.915Z,100375.97
2019-05-29T04:26:16.626Z,100381.37
2019-05-29T04:28:46.223Z,100384.07
2019-05-29T04:31:38.525Z,100393.52
2019-05-29T04:34:07.864Z,100399.75
2019-05-29T04:36:38.857Z,100404.33
2019-05-29T04:39:08.799Z,100405.80
2019-05-29T04:41:39.258Z,100414.14
2019-05-29T04:44:08.812Z,100414.72
2019-05-29T04:46:38.618Z,100428.09
2019-05-29T04:49:09.175Z,100431.35
2019-05-29T04:51:39.920Z,100417.49
2019-05-29T04:54:09.323Z,100415.75
2019-05-29T04:56:39.164Z,100418.91
2019-05-29T04:59:08.821Z,100418.58
2019-05-29T05:01:39.211Z,100424.89
2019-05-29T05:04:09.130Z,100426.14
2019-05-29T05:06:39.511Z,100433.17
2019-05-29T05:09:08.948Z,100442.95
2019-05-29T05:11:38.244Z,100435.75
2019-05-29T05:14:07.646Z,100438.25
2019-05-29T05:16:37.892Z,100437.48
2019-05-29T05:19:07.405Z,100427.84
2019-05-29T05:21:38.075Z,100435.77
2019-05-29T05:24:07.441Z,100438.86
2019-05-29T05:26:38.295Z,100438.20
2019-05-29T05:29:07.700Z,100438.75
2019-05-29T05:31:37.049Z,100433.11
2019-05-29T05:34:06.384Z,100429.77
2019-05-29T05:36:36.789Z,100414.69
2019-05-29T05:39:07.530Z,100407.33
2019-05-29T05:41:36.915Z,100409.37
2019-05-29T05:44:06.596Z,100404.59
2019-05-29T05:46:37.064Z,100412.48
2019-05-29T05:49:06.440Z,100415.84
2019-05-29T05:51:39.646Z,100419.33
2019-05-29T05:54:06.711Z,100412.23
2019-05-29T05:56:35.971Z,100406.53
2019-05-29T05:59:05.386Z,100403.36
2019-05-29T06:01:35.870Z,100394.95
2019-05-29T06:04:05.463Z,100385.30
2019-05-29T06:06:35.771Z,100380.66
2019-05-29T06:09:07.741Z,100378.55
2019-05-29T06:11:38.230Z,100375.23
2019-05-29T06:14:08.034Z,100375.42
2019-05-29T06:16:38.645Z,100374.94
2019-05-29T06:19:08.070Z,100375.32
2019-05-29T06:21:37.339Z,100373.06
2019-05-29T06:24:06.658Z,100377.41
2019-05-29T06:26:36.900Z,100379.89
2019-05-29T06:29:06.176Z,100383.30
2019-05-29T06:31:35.728Z,100388.08
2019-05-29T06:34:04.990Z,100389.53
2019-05-29T06:36:35.481Z,100388.27
2019-05-29T06:39:06.763Z,100388.73
2019-05-29T06:41:36.000Z,100389.17
2019-05-29T06:44:05.257Z,100401.62
2019-05-29T06:46:36.060Z,100401.47
2019-05-29T06:49:05.625Z,100398.42
2019-05-29T06:51:35.202Z,100403.23
2019-05-29T06:54:04.479Z,100392.45
2019-05-29T06:56:34.047Z,100400.64
2019-05-29T06:59:03.349Z,100408.02
2019-05-29T07:01:32.651Z,100407.33
2019-05-29T07:04:12.010Z,100410.94
2019-05-29T07:06:32.852Z,100412.88
2019-05-29T07:09:02.094Z,100414.62
2019-05-29T07:11:31.596Z,100424.08
2019-05-29T07:14:00.886Z,100429.05
2019-05-29T07:16:43.990Z,100427.20
2019-05-29T07:19:24.706Z,100434.68
2019-05-29T07:21:33.034Z,100443.48
2019-05-29T07:24:02.276Z,100447.59
2019-05-29T07:26:31.490Z,100452.41
2019-05-29T07:29:08.034Z,100451.90
2019-05-29T07:31:31.839Z,100450.80
2019-05-29T07:34:01.444Z,100449.22
2019-05-29T07:36:30.731Z,100459.94
2019-05-29T07:39:03.636Z,100473.94
2019-05-29T07:41:31.247Z,100470.48
2019-05-29T07:44:00.618Z,100474.51
2019-05-29T07:46:29.856Z,100482.63
2019-05-29T07:48:59.185Z,100475.05
2019-05-29T07:51:28.416Z,100475.34
2019-05-29T07:53:57.638Z,100486.80
2019-05-29T07:56:26.886Z,100494.36
2019-05-29T07:59:02.577Z,100499.27
2019-05-29T08:01:30.425Z,100519.84
2019-05-29T08:03:58.421Z,100523.95
2019-05-29T08:06:27.682Z,100530.48
2019-05-29T08:08:56.941Z,100534.30
2019-05-29T08:11:26.216Z,100539.95
2019-05-29T08:13:55.589Z,100541.66
2019-05-29T08:16:24.838Z,100546.54
2019-05-29T08:18:54.060Z,100540.08
2019-05-29T08:21:23.393Z,100536.79
2019-05-29T08:23:54.902Z,100530.77
2019-05-29T08:26:24.206Z,100541.42
2019-05-29T08:28:53.445Z,100546.70
2019-05-29T08:31:22.716Z,100540.39
2019-05-29T08:33:52.229Z,100555.44
2019-05-29T08:36:21.513Z,100580.44
2019-05-29T08:38:51.808Z,100592.64
2019-05-29T08:41:21.210Z,100592.10
2019-05-29T08:43:50.873Z,100583.47
2019-05-29T08:46:21.304Z,100575.60
2019-05-29T08:48:50.554Z,100561.91
2019-05-29T08:51:19.837Z,100543.15
2019-05-29T08:53:52.083Z,100538.99
2019-05-29T08:56:20.268Z,100539.77
2019-05-29T08:58:50.620Z,100555.71
2019-05-29T09:01:19.947Z,100571.98
2019-05-29T09:03:49.202Z,100565.48
2019-05-29T09:06:18.505Z,100570.95
2019-05-29T09:08:48.525Z,100574.23
2019-05-29T09:11:19.933Z,100576.97
2019-05-29T09:13:49.244Z,100571.21
2019-05-29T09:16:18.487Z,100573.91
2019-05-29T09:18:47.753Z,100580.91
2019-05-29T09:21:19.109Z,100576.04
2019-05-29T09:23:48.456Z,100587.69
2019-05-29T09:26:22.411Z,100590.66
2019-05-29T09:28:48.747Z,100602.05
2019-05-29T09:31:19.925Z,100606.52
2019-05-29T09:33:49.559Z,100602.42
2019-05-29T09:36:19.244Z,100606.30
2019-05-29T09:38:50.158Z,100611.31
2019-05-29T09:41:19.484Z,100617.33
2019-05-29T09:43:59.288Z,100621.48
2019-05-29T09:46:20.139Z,100627.19
2019-05-29T09:48:50.440Z,100616.87
2019-05-29T09:53:44.883Z,100622.35
2019-05-29T09:53:53.580Z,100613.05
2019-05-29T09:56:22.724Z,100603.78
2019-05-29T09:58:53.678Z,100606.48
2019-05-29T10:01:24.931Z,100617.67
2019-05-29T10:03:57.136Z,100626.45
2019-05-29T10:06:26.013Z,100626.98
2019-05-29T10:08:56.281Z,100636.04
2019-05-29T10:11:26.220Z,100633.45
2019-05-29T10:13:56.778Z,100617.27
2019-05-29T10:16:26.530Z,100620.00
2019-05-29T10:18:57.240Z,100629.75
2019-05-29T10:21:38.990Z,100641.90
2019-05-29T10:23:59.603Z,100645.41
2019-05-29T10:26:28.876Z,100649.44
2019-05-29T10:29:07.838Z,100656.83
2019-05-29T10:31:29.088Z,100659.62
2019-05-29T10:33:58.773Z,100657.19
2019-05-29T10:36:28.020Z,100656.84
2019-05-29T10:38:57.451Z,100655.59
2019-05-29T10:41:26.679Z,100649.27
2019-05-29T10:43:56.181Z,100646.25
2019-05-29T10:46:26.497Z,100643.52
2019-05-29T10:48:56.627Z,100643.32
2019-05-29T10:51:26.019Z,100646.05
2019-05-29T10:53:58.039Z,100658.16
2019-05-29T10:56:26.241Z,100654.45
2019-05-29T10:58:59.569Z,100648.92
2019-05-29T11:01:26.737Z,100646.73
2019-05-29T11:03:56.046Z,100651.56
2019-05-29T11:06:25.321Z,100664.16
2019-05-29T11:08:54.520Z,100661.81
2019-05-29T11:11:23.771Z,100658.06
2019-05-29T11:13:53.016Z,100660.19
2019-05-29T11:16:22.300Z,100663.03
2019-05-29T11:18:51.584Z,100656.47
2019-05-29T11:21:20.839Z,100666.84
2019-05-29T11:23:50.336Z,100673.62
2019-05-29T11:26:19.590Z,100676.25
2019-05-29T11:28:50.320Z,100674.50
2019-05-29T11:31:19.733Z,100667.66
2019-05-29T11:33:48.953Z,100664.58
2019-05-29T11:36:18.234Z,100658.11
2019-05-29T11:38:47.446Z,100660.77
2019-05-29T11:41:25.991Z,100664.80
2019-05-29T11:43:47.739Z,100663.31
2019-05-29T11:46:17.359Z,100671.42
2019-05-29T11:48:46.623Z,100670.38
2019-05-29T11:51:15.865Z,100684.84
2019-05-29T11:53:45.086Z,100684.31
2019-05-29T11:56:14.350Z,100686.08
2019-05-29T11:58:43.580Z,100682.52
2019-05-29T12:01:12.821Z,100691.33
2019-05-29T12:04:05.894Z,100686.66
2019-05-29T12:06:13.029Z,100680.61
2019-05-29T12:08:42.322Z,100683.11
2019-05-29T12:11:11.570Z,100685.83
2019-05-29T12:13:40.813Z,100687.30
2019-05-29T12:16:11.495Z,100687.73
2019-05-29T12:18:40.723Z,100686.30
2019-05-29T12:21:10.168Z,100682.48
2019-05-29T12:23:39.382Z,100682.29
2019-05-29T12:26:21.859Z,100685.83
2019-05-29T12:28:39.716Z,100678.23
2019-05-29T12:31:09.095Z,100680.91
2019-05-29T12:33:38.329Z,100672.42
2019-05-29T12:36:08.022Z,100676.04
2019-05-29T12:38:37.660Z,100671.19
2019-05-29T12:41:07.004Z,100670.11
2019-05-29T12:43:36.205Z,100664.63
2019-05-29T12:46:05.553Z,100664.63
2019-05-29T12:48:34.806Z,100669.05
2019-05-29T12:51:04.293Z,100673.41
2019-05-29T12:53:33.780Z,100664.35
2019-05-29T12:56:04.454Z,100670.59
2019-05-29T12:58:33.847Z,100670.59
2019-05-29T13:01:04.985Z,100661.05
2019-05-29T13:03:34.953Z,100672.76
2019-05-29T13:06:04.497Z,100666.80
2019-05-29T13:08:33.744Z,100660.70
2019-05-29T13:11:02.957Z,100658.36
2019-05-29T13:13:32.207Z,100663.03
2019-05-29T13:16:03.068Z,100668.73
2019-05-29T13:18:32.780Z,100662.65
2019-05-29T13:21:03.128Z,100661.98
2019-05-29T13:23:44.869Z,100662.31
2019-05-29T13:26:03.739Z,100666.16
2019-05-29T13:28:33.148Z,100663.28
2019-05-29T13:31:02.361Z,100667.73
2019-05-29T13:33:31.592Z,100666.44
2019-05-29T13:36:02.122Z,100664.55
2019-05-29T13:38:31.495Z,100658.38
2019-05-29T13:41:00.678Z,100663.41
2019-05-29T13:43:29.939Z,100651.02
2019-05-29T13:46:00.392Z,100647.30
2019-05-29T13:48:29.718Z,100649.55
2019-05-29T13:50:59.854Z,100648.13
2019-05-29T13:53:29.882Z,100651.28
2019-05-29T13:55:59.966Z,100653.83
2019-05-29T13:58:29.436Z,100644.37
2019-05-29T14:01:00.625Z,100644.23
2019-05-29T14:03:29.756Z,100647.87
2019-05-29T14:06:00.648Z,100639.75
2019-05-29T14:08:29.999Z,100642.30
2019-05-29T14:11:00.879Z,100644.16
2019-05-29T14:13:30.266Z,100637.55
2019-05-29T14:16:00.552Z,100643.21
2019-05-29T14:18:30.342Z,100636.33
2019-05-29T14:21:00.811Z,100634.50
2019-05-29T14:23:30.225Z,100621.36
2019-05-29T14:26:00.397Z,100635.47
2019-05-29T14:28:29.776Z,100628.89
2019-05-29T14:30:58.984Z,100634.50
2019-05-29T14:33:28.312Z,100631.53
2019-05-29T14:35:57.536Z,100639.91
2019-05-29T14:38:26.770Z,100633.09
2019-05-29T14:40:56.291Z,100634.27
2019-05-29T14:43:25.528Z,100635.00
2019-05-29T14:45:54.814Z,100638.99
2019-05-29T14:48:24.062Z,100633.81
2019-05-29T14:50:53.306Z,100635.23
2019-05-29T14:53:22.535Z,100626.84
2019-05-29T14:55:51.781Z,100634.64
2019-05-29T14:58:20.999Z,100634.46
2019-05-29T15:00:50.287Z,100629.08
2019-05-29T15:03:19.531Z,100632.59
2019-05-29T15:05:48.790Z,100631.66
2019-05-29T15:08:18.299Z,100628.06
2019-05-29T15:10:49.904Z,100629.97
2019-05-29T15:13:19.150Z,100629.52
2019-05-29T15:15:48.397Z,100623.61
2019-05-29T15:18:19.314Z,100633.82
2019-05-29T15:20:48.705Z,100626.77
2019-05-29T15:23:17.938Z,100636.98
2019-05-29T15:25:47.212Z,100635.41
2019-05-29T15:28:17.966Z,100630.42
2019-05-29T15:30:47.648Z,100632.22
2019-05-29T15:33:16.990Z,100629.91
2019-05-29T15:35:46.224Z,100631.05
2019-05-29T15:38:16.937Z,100632.78
2019-05-29T15:40:46.492Z,100632.83
2019-05-29T15:43:17.214Z,100628.43
2019-05-29T15:45:46.735Z,100630.33
2019-05-29T15:48:17.443Z,100631.25
2019-05-29T15:50:47.116Z,100637.55
2019-05-29T15:53:17.280Z,100630.66
2019-05-29T15:55:46.724Z,100635.94
2019-05-29T15:58:16.286Z,100637.21
2019-05-29T16:00:47.685Z,100635.00
2019-05-29T16:03:17.788Z,100631.61
2019-05-29T16:05:47.038Z,100631.09
2019-05-29T16:08:16.335Z,100635.05
2019-05-29T16:10:45.874Z,100630.61
2019-05-29T16:13:15.201Z,100631.30
2019-05-29T16:15:44.703Z,100627.64
2019-05-29T16:18:23.151Z,100625.91
2019-05-29T16:20:44.993Z,100620.28
2019-05-29T16:23:30.773Z,100616.85
2019-05-29T16:25:45.188Z,100620.28
2019-05-29T16:28:15.148Z,100621.67
2019-05-29T16:30:44.438Z,100627.22
2019-05-29T16:33:14.938Z,100622.10
2019-05-29T16:35:44.406Z,100629.08
2019-05-29T16:38:14.205Z,100621.22
2019-05-29T16:40:44.934Z,100623.95
2019-05-29T16:43:14.218Z,100622.55
2019-05-29T16:45:43.453Z,100619.41
2019-05-29T16:48:12.999Z,100623.50
2019-05-29T16:50:42.507Z,100628.05
2019-05-29T16:53:12.610Z,100623.95
2019-05-29T16:55:53.358Z,100612.51
2019-05-29T16:58:13.123Z,100616.69
2019-05-29T17:00:42.343Z,100621.23
2019-05-29T17:03:11.583Z,100617.76
2019-05-29T17:05:46.929Z,100620.60
2019-05-29T17:08:16.224Z,100620.39
2019-05-29T17:10:45.767Z,100620.78
2019-05-29T17:13:16.492Z,100619.87
2019-05-29T17:15:45.925Z,100620.98
2019-05-29T17:18:16.422Z,100626.36
2019-05-29T17:20:46.741Z,100623.84
2019-05-29T17:23:18.879Z,100615.55
2019-05-29T17:25:48.151Z,100621.06
2019-05-29T17:28:22.496Z,100616.92
2019-05-29T17:30:49.344Z,100619.70
2019-05-29T17:33:19.083Z,100623.31
2019-05-29T17:35:48.439Z,100616.33
2019-05-29T17:38:25.552Z,100614.05
2019-05-29T17:40:55.331Z,100617.71
2019-05-29T17:43:28.448Z,100621.08
2019-05-29T17:45:55.973Z,100623.48
2019-05-29T17:48:26.045Z,100623.02
2019-05-29T17:50:55.224Z,100626.97
2019-05-29T17:53:24.445Z,100626.31
2019-05-29T17:55:53.688Z,100636.91
2019-05-29T17:58:24.786Z,100632.33
2019-05-29T18:00:53.916Z,100636.62
2019-05-29T18:03:24.209Z,100639.08
2019-05-29T18:05:55.661Z,100633.91
2019-05-29T18:08:25.185Z,100639.01
2019-05-29T18:10:54.733Z,100641.77
2019-05-29T18:13:25.240Z,100638.70
2019-05-29T18:15:54.769Z,100644.06
2019-05-29T18:18:23.966Z,100641.17
2019-05-29T18:20:55.501Z,100640.23
2019-05-29T18:23:28.427Z,100638.63
2019-05-29T18:25:58.343Z,100644.11
2019-05-29T18:28:28.351Z,100639.54
2019-05-29T18:30:58.532Z,100649.95
2019-05-29T18:33:28.909Z,100647.43
2019-05-29T18:35:58.809Z,100647.95
2019-05-29T18:38:28.716Z,100645.16
2019-05-29T18:40:58.565Z,100641.16
2019-05-29T18:43:30.947Z,100635.50
2019-05-29T18:46:00.635Z,100641.23
2019-05-29T18:48:32.471Z,100636.44
2019-05-29T18:51:02.122Z,100630.15
2019-05-29T18:53:33.945Z,100626.47
2019-05-29T18:56:03.547Z,100632.69
2019-05-29T18:58:32.846Z,100618.72
2019-05-29T19:01:04.433Z,100618.72
2019-05-29T19:03:33.855Z,100622.19
2019-05-29T19:06:07.152Z,100621.38
2019-05-29T19:08:36.625Z,100615.61
2019-05-29T19:11:09.060Z,100615.36
2019-05-29T19:13:38.408Z,100617.18
2019-05-29T19:16:08.066Z,100614.30
2019-05-29T19:18:37.685Z,100614.30
2019-05-29T19:21:07.330Z,100610.44
2019-05-29T19:23:36.618Z,100605.31
2019-05-29T19:26:05.917Z,100606.72
2019-05-29T19:28:35.154Z,100600.55
2019-05-29T19:31:04.543Z,100608.06
2019-05-29T19:33:33.801Z,100606.26
2019-05-29T19:36:03.029Z,100612.17
2019-05-29T19:38:32.285Z,100612.48
2019-05-29T19:41:01.532Z,100604.73
2019-05-29T19:43:30.783Z,100613.25
2019-05-29T19:46:00.005Z,100606.58
2019-05-29T19:48:30.615Z,100614.93
2019-05-29T19:51:00.393Z,100616.73
2019-05-29T19:53:29.997Z,100619.28
2019-05-29T19:55:59.718Z,100621.25
2019-05-29T19:58:29.777Z,100621.74
2019-05-29T20:00:59.062Z,100618.34
2019-05-29T20:03:28.377Z,100618.75
2019-05-29T20:05:57.828Z,100621.52
2019-05-29T20:08:28.083Z,100622.37
2019-05-29T20:10:58.033Z,100633.02
2019-05-29T20:13:27.636Z,100628.98
2019-05-29T20:15:56.923Z,100620.13
2019-05-29T20:18:26.203Z,100628.13
2019-05-29T20:20:55.476Z,100620.31
2019-05-29T20:23:24.806Z,100609.53
2019-05-29T20:25:54.062Z,100596.31
2019-05-29T20:28:23.631Z,100602.41
2019-05-29T20:30:52.890Z,100593.08
2019-05-29T20:33:22.142Z,100587.91
2019-05-29T20:35:51.761Z,100579.25
2019-05-29T20:38:21.234Z,100567.00
2019-05-29T20:40:50.482Z,100572.76
2019-05-29T20:43:19.936Z,100569.80
2019-05-29T20:45:49.648Z,100559.16
2019-05-29T20:48:18.962Z,100555.59
2019-05-29T20:50:54.116Z,100549.05
2019-05-29T20:53:23.444Z,100551.82
2019-05-29T20:55:54.067Z,100545.27
2019-05-29T20:58:24.927Z,100546.36
2019-05-29T21:00:54.656Z,100546.89
2019-05-29T21:03:24.251Z,100555.66
2019-05-29T21:05:53.766Z,100555.93
2019-05-29T21:08:23.084Z,100552.37
2019-05-29T21:10:52.672Z,100551.02
2019-05-29T21:13:22.433Z,100553.18
2019-05-29T21:15:51.696Z,100543.33
2019-05-29T21:18:20.961Z,100529.34
2019-05-29T21:20:50.311Z,100548.73
2019-05-29T21:23:19.777Z,100546.02
2019-05-29T21:25:49.050Z,100540.77
2019-05-29T21:28:18.669Z,100546.22
2019-05-29T21:30:48.351Z,100551.89
2019-05-29T21:33:17.664Z,100545.53
2019-05-29T21:35:46.952Z,100547.58
2019-05-29T21:38:16.185Z,100549.97
2019-05-29T21:40:46.755Z,100551.53
2019-05-29T21:43:16.134Z,100549.80
2019-05-29T21:45:45.443Z,100548.67
2019-05-29T21:48:14.697Z,100554.09
2019-05-29T21:50:43.973Z,100549.41
2019-05-29T21:53:13.177Z,100549.37
2019-05-29T21:55:43.585Z,100546.99
2019-05-29T21:58:12.849Z,100551.34
2019-05-29T22:00:48.242Z,100556.68
2019-05-29T22:03:17.645Z,100555.61
2019-05-29T22:05:46.969Z,100555.00
2019-05-29T22:08:17.085Z,100553.08
2019-05-29T22:10:46.519Z,100556.55
2019-05-29T22:13:15.922Z,100550.12
2019-05-29T22:15:45.201Z,100552.84
2019-05-29T22:18:14.535Z,100554.91
2019-05-29T22:20:44.041Z,100552.63
2019-05-29T22:23:13.277Z,100555.50
2019-05-29T22:25:42.591Z,100552.37
2019-05-29T22:28:11.812Z,100561.04
2019-05-29T22:30:41.911Z,100560.71
2019-05-29T22:33:11.214Z,100559.63
2019-05-29T22:35:40.466Z,100570.44
2019-05-29T22:38:09.683Z,100565.87
2019-05-29T22:40:38.951Z,100569.91
2019-05-29T22:43:08.186Z,100573.08
2019-05-29T22:45:37.438Z,100572.75
2019-05-29T22:48:06.661Z,100571.27
2019-05-29T22:50:35.946Z,100572.03
2019-05-29T22:53:05.584Z,100566.22
2019-05-29T22:55:34.829Z,100564.83
2019-05-29T22:58:04.672Z,100577.43
2019-05-29T23:00:34.189Z,100582.86
2019-05-29T23:03:03.598Z,100583.70
2019-05-29T23:05:33.151Z,100575.09
2019-05-29T23:08:02.768Z,100578.56
2019-05-29T23:10:32.179Z,100579.42
2019-05-29T23:13:04.390Z,100580.22
2019-05-29T23:15:32.661Z,100583.16
2019-05-29T23:18:02.813Z,100578.33
2019-05-29T23:20:32.473Z,100576.77
2019-05-29T23:23:02.924Z,100575.17
2019-05-29T23:25:32.269Z,100570.88
2019-05-29T23:28:01.567Z,100572.09
2019-05-29T23:30:31.156Z,100571.70
2019-05-29T23:33:01.181Z,100572.39
2019-05-29T23:35:30.562Z,100574.05
2019-05-29T23:37:59.870Z,100576.24
2019-05-29T23:40:29.109Z,100571.64
2019-05-29T23:42:59.455Z,100571.70
2019-05-29T23:45:28.797Z,100574.42
2019-05-29T23:47:58.132Z,100579.37
2019-05-29T23:50:27.391Z,100583.23
2019-05-29T23:52:57.929Z,100570.74
2019-05-29T23:55:27.287Z,100585.23
2019-05-29T23:57:57.750Z,100589.22
